Terminal Aerodrome Forecast
Issued by NWS

Home | Current Version | Previous Version | Text Only | Print | Product List | Glossary On
Versions: 1 2 3 4 5 6 7 8 9 10 11 12 13 14
000
FTUS43 KGLD 170500
TAFMCK
TAF
KMCK 170520Z 1706/1806 03010KT P6SM SCT020 BKN130
      TEMPO 1708/1712 BKN020
     FM171400 08007KT P6SM SCT020 BKN070
     FM171800 13007KT P6SM BKN070
     FM172100 16011KT P6SM BKN080=

USA.gov is the U.S. government's official web portal to all federal, state and local government web resources and services.